Collins, WI (54207)

4:24 PM CDT on September 21, 2019 (GMT -0500)
Cul-de-sac Association | | Change Station
Active Advisory: Beach Hazard Statement

Elev 833 ft 44.15 °N, 87.96 °W | Updated 4 seconds ago

Overcast
Overcast
74 °F
Feels Like 70 °F
N
4
Wind Variable Wind from SW
Gusts 5.0 mph

Today
High -- | Low -- °F
--% Chance of Precip.
Yesterday
High -- | Low -- °F
Precip. -- in
Pressure 29.94 in
Visibility 10.0 miles
Clouds Overcast 2500 ft
Heat Index 70 °F
Dew Point 73 °F
Humidity 99%
Rainfall 0.00 in
Snow Depth Not available.
6:37 AM 6:51 PM
Waning Gibbous, 52% visible
METAR KMTW 211956Z AUTO 16009KT 10SM OVC025 21/19 A2995 RMK AO2 SLP139 T02060189
Pressure 29.94 in
Visibility 10.0 miles
Clouds Overcast 2500 ft
Heat Index 70 °F
Dew Point 73 °F
Humidity 99%
Rainfall 0.00 in
Snow Depth Not available.
6:37 AM 6:51 PM
Waning Gibbous, 52% visible
METAR KMTW 211956Z AUTO 16009KT 10SM OVC025 21/19 A2995 RMK AO2 SLP139 T02060189

Get Your Daily Forecast Email!

Thanks for signing up!

Be on the lookout for a verification email in your inbox.

You'll start receiving severe weather alerts in your inbox..

×

10-Day Weather Forecast

Almanac

Astronomy

Sep. 21, 2019 Rise Set
Actual Time
Civil Twilight
Nautical Twilight
Astronomical Twilight
Moon
Length of Visible Light
Length of Day
Tomorrow will be .
, % of the Moon is Illuminated

Today's Extremes

State Highs State Lows

Community

WunderPhotos

Category 6

Welcome to Category 6. This is the collective home for Weather Underground's featured writeups by Dr. Jeff Masters (right), Bob Henson (left), Chris Burt, and other regular contributors.

Nearby

Air Quality

  Air Quality AQ Index Pollutant
Not available.

Snow Depth

Station Depth Elevation

Earthquake Activity

City Distance Mag. Time & Date
Minimum magnitude displayed is 2.5.

Coastal Water Temperatures

Place Temperature

Stations

Nearby Weather Stations

Station Location Temp. Windchill Dew Point Humidity Wind Precip. Elev Updated Type
                   

Watches & Warnings

Beach Hazard Statement
Issued: 3:41 PM CDT Sep. 21, 2019 – National Weather Service

... Beach hazards statement remains in effect through late
tonight...

* high wave action, strong currents, and dangerous swimming
conditions expected.

* Location...

beaches of Door County including Rock Island state beach,
Baileys Harbor beaches, and Whitefish Dunes Beach.

Beaches of Kewaunee County including Cresent Beach and city of
Kewaunee beach.

Beaches of Manitowoc County including Point Beach, neshotah
beach, and red arrow beach.

* South winds flowing up the long axis of Lake Michigan will
bring 4 to 5 foot waves to the beaches of northeast Wisconsin
this afternoon through tonight, resulting in dangerous
swimming conditions.

Precautionary/preparedness actions...

High wave action makes swimming difficult as waves on the Great
Lakes occur in rapid succession. High wave action also leads to
strong currents.



Hykin